Chicago, IL

10:46 PM CDT on September 19, 2019 (GMT -0500)
AB9FX | | Change Station
Active Advisory: Flood Warning

Elev 636 ft 41.97 °N, 87.85 °W | Updated 1 minute ago

Mostly Cloudy
Mostly Cloudy
67.5 °F
Feels Like 67.5 °F
N
0
Wind Variable Wind from ESE
Gusts 0.0 mph

Today
High -- | Low -- °F
--% Chance of Precip.
Yesterday
High -- | Low -- °F
Precip. -- in
Pressure 30.06 in
Visibility 10.0 miles
Clouds Scattered Clouds 10000 ft
Mostly Cloudy 19000 ft
Dew Point 62 °F
Humidity 82%
Rainfall 0.00 in
Snow Depth Not available.
6:35 AM 6:54 PM
Waning Gibbous, 70% visible
METAR KORD 200251Z 14004KT 10SM SCT100 BKN190 23/14 A3007 RMK AO2 SLP177 T02280139 53011
Pressure 30.06 in
Visibility 10.0 miles
Clouds Scattered Clouds 10000 ft
Mostly Cloudy 19000 ft
Dew Point 62 °F
Humidity 82%
Rainfall 0.00 in
Snow Depth Not available.
6:35 AM 6:54 PM
Waning Gibbous, 70% visible
METAR KORD 200251Z 14004KT 10SM SCT100 BKN190 23/14 A3007 RMK AO2 SLP177 T02280139 53011

Get Your Daily Forecast Email!

Thanks for signing up!

Be on the lookout for a verification email in your inbox.

You'll start receiving severe weather alerts in your inbox..

×

10-Day Weather Forecast

Almanac

Astronomy

Sep. 19, 2019 Rise Set
Actual Time
Civil Twilight
Nautical Twilight
Astronomical Twilight
Moon
Length of Visible Light
Length of Day
Tomorrow will be .
, % of the Moon is Illuminated

Today's Extremes

State Highs State Lows

Community

WunderPhotos

Category 6

Welcome to Category 6. This is the collective home for Weather Underground's featured writeups by Dr. Jeff Masters (right), Bob Henson (left), Chris Burt, and other regular contributors.

Nearby

Air Quality

  Air Quality AQ Index Pollutant
Not available.

Snow Depth

Station Depth Elevation

Earthquake Activity

City Distance Mag. Time & Date
Minimum magnitude displayed is 2.5.

Coastal Water Temperatures

Place Temperature

Stations

Nearby Weather Stations

Station Location Temp. Windchill Dew Point Humidity Wind Precip. Elev Updated Type
                   

Watches & Warnings

Flood Warning
Issued: 8:10 PM CDT Sep. 19, 2019 – National Weather Service

The Flood Warning continues for
the Des Plaines river near Des Plaines, or from Palatine Road in
Prospect Heights downstream to Irving Park Road in Chicago.
* Until Saturday afternoon.
* At 745 PM Thursday the stage was 16.1 feet.
* Flood stage is 15.0 feet.
* Minor flooding is occurring and minor flooding is forecast.
* Forecast... the river will continue to fall to below flood stage by
Saturday morning.


Lat... Lon 4212 8794 4212 8784 4197 8780 4196 8790